Elizabeth — 9V8794 — position and weather

sailwx.info

Track history (hours):
 
Tides and Currents Weather Stations Pressure Air Temp Water Temp Dewpoint Dewpoint Depression Visibility Wind Speed Wind Dir Waves Ship Positions

Elizabeth

Last reported at 2014-Aug-17 11:27 UTC. Time now 2014-Aug-27 13:12 UTC.
Position N 21°27' E 117°49'.
Warning: this ship's position is 10 days out of date.

Length 190 m; draft 7.8 m.

Type: Cargo ship. MMSI: 566073000.

Date/timePositionNaut miles runAvg speedWind from/ knotsBaromVisibWave heightAir tempDewpointWater temp
2014-Aug-17 11:27N 21°27' E 117°49'1213.2
2014-Aug-17 10:33N 21°32' E 118°00'12013.1
2014-Aug-17 01:26N 22°32' E 119°52'1213.2
2014-Aug-17 00:33N 22°43' E 119°55'52211.6
2014-Aug-15 03:31N 30°57' E 123°03'1312.4
2014-Aug-15 02:30N 31°02' E 122°50'1212.3
2014-Aug-15 01:33N 31°05' E 122°36'10 9.6
2014-Aug-15 00:33N 31°05' E 122°25'2813.6
2014-Aug-14 22:28N 31°16' E 121°55'1314.3
2014-Aug-14 21:33N 31°21' E 121°40'1110.7
2014-Aug-14 20:33N 31°26' E 121°30'8 7.7
2014-Aug-14 19:33N 31°31' E 121°23'1312.3
2014-Aug-14 18:32N 31°40' E 121°12'1313.0
2014-Aug-14 17:33N 31°47' E 120°60'1313.0
2014-Aug-14 16:32N 31°58' E 120°51'1313.5
2014-Aug-14 15:33N 32°01' E 120°36'1111.0
2014-Aug-14 14:33N 32°01' E 120°23'1312.8
2014-Aug-14 13:33N 31°56' E 120°09'1413.5
2014-Aug-14 12:33N 32°04' E 119°56'1313.3
2014-Aug-14 11:34N 32°16' E 119°51'  
2014-Aug-12 03:33N 32°17' E 119°51'1110.6
2014-Aug-12 02:33N 32°07' E 119°55'9 9.0
2014-Aug-12 01:33N 31°59' E 120°00'9 8.8
2014-Aug-12 00:33N 31°56' E 120°10'8 8.4
2014-Aug-11 23:33N 31°58' E 120°20'1010.4
2014-Aug-11 22:33N 32°04' E 120°30'1110.7
2014-Aug-11 21:33N 32°00' E 120°41'1110.8
2014-Aug-11 20:33N 31°55' E 120°53'1211.7
2014-Aug-11 19:34N 31°46' E 121°02'1514.0
2014-Aug-11 18:28N 31°37' E 121°16'1212.9
2014-Aug-11 17:33N 31°29' E 121°26'7 6.6
2014-Aug-11 16:33N 31°25' E 121°32'9 9.2
2014-Aug-11 15:33N 31°20' E 121°41'1413.5
2014-Aug-11 14:32N 31°10' E 121°52'2311.8
2014-Aug-11 12:33N 31°03' E 122°18'6 5.3
2014-Aug-11 11:23N 31°01' E 122°25'7 7.1
2014-Aug-11 10:23N 30°60' E 122°33'6 7.3
2014-Aug-11 09:33N 30°59' E 122°40'31610.4
2014-Aug-10 03:12N 35°58' E 120°37'812.0
2014-Aug-10 02:33N 35°59' E 120°28'8 8.4
2014-Aug-10 01:33N 36°02' E 120°18'  
Track history (hours):
 
Tides and Currents Weather Stations Pressure Air Temp Water Temp Dewpoint Dewpoint Depression Visibility Wind Speed Wind Dir Waves Ship Positions

Elizabeth

Last reported at 2014-Aug-17 11:27 UTC. Time now 2014-Aug-27 13:12 UTC.
Position N 21°27' E 117°49'.
Warning: this ship's position is 10 days out of date.

Length 190 m; draft 7.8 m.

Type: Cargo ship. MMSI: 566073000.

Date/timePositionNaut miles runAvg speedWind from/ knotsBaromVisibWave heightAir tempDewpointWater temp
2014-Aug-17 11:27N 21°27' E 117°49'1213.2
2014-Aug-17 10:33N 21°32' E 118°00'12013.1
2014-Aug-17 01:26N 22°32' E 119°52'1213.2
2014-Aug-17 00:33N 22°43' E 119°55'52211.6
2014-Aug-15 03:31N 30°57' E 123°03'1312.4
2014-Aug-15 02:30N 31°02' E 122°50'1212.3
2014-Aug-15 01:33N 31°05' E 122°36'10 9.6
2014-Aug-15 00:33N 31°05' E 122°25'2813.6
2014-Aug-14 22:28N 31°16' E 121°55'1314.3
2014-Aug-14 21:33N 31°21' E 121°40'1110.7
2014-Aug-14 20:33N 31°26' E 121°30'8 7.7
2014-Aug-14 19:33N 31°31' E 121°23'1312.3
2014-Aug-14 18:32N 31°40' E 121°12'1313.0
2014-Aug-14 17:33N 31°47' E 120°60'1313.0
2014-Aug-14 16:32N 31°58' E 120°51'1313.5
2014-Aug-14 15:33N 32°01' E 120°36'1111.0
2014-Aug-14 14:33N 32°01' E 120°23'1312.8
2014-Aug-14 13:33N 31°56' E 120°09'1413.5
2014-Aug-14 12:33N 32°04' E 119°56'1313.3
2014-Aug-14 11:34N 32°16' E 119°51'  
2014-Aug-12 03:33N 32°17' E 119°51'1110.6
2014-Aug-12 02:33N 32°07' E 119°55'9 9.0
2014-Aug-12 01:33N 31°59' E 120°00'9 8.8
2014-Aug-12 00:33N 31°56' E 120°10'8 8.4
2014-Aug-11 23:33N 31°58' E 120°20'1010.4
2014-Aug-11 22:33N 32°04' E 120°30'1110.7
2014-Aug-11 21:33N 32°00' E 120°41'1110.8
2014-Aug-11 20:33N 31°55' E 120°53'1211.7
2014-Aug-11 19:34N 31°46' E 121°02'1514.0
2014-Aug-11 18:28N 31°37' E 121°16'1212.9
2014-Aug-11 17:33N 31°29' E 121°26'7 6.6
2014-Aug-11 16:33N 31°25' E 121°32'9 9.2
2014-Aug-11 15:33N 31°20' E 121°41'1413.5
2014-Aug-11 14:32N 31°10' E 121°52'2311.8
2014-Aug-11 12:33N 31°03' E 122°18'6 5.3
2014-Aug-11 11:23N 31°01' E 122°25'7 7.1
2014-Aug-11 10:23N 30°60' E 122°33'6 7.3
2014-Aug-11 09:33N 30°59' E 122°40'31610.4
2014-Aug-10 03:12N 35°58' E 120°37'812.0
2014-Aug-10 02:33N 35°59' E 120°28'8 8.4
2014-Aug-10 01:33N 36°02' E 120°18'  

Dump ship's entire track history